Decoded Metar for KHYI (SAN MARCOS in TX, USA) (IATA:HYI) | Meteo·Mobile Aviation Weather
aviador You're here:

KHYI Decoded Metar

SAN MARCOS in TX, USA
Report Time2019-07-23 02:56:00
UTC Time2019-07-23 03:17:23
Flight Rules vfr VFR
Wind180° at 06 kt
W.Decomp.*RWY 17: 6.0 kt HW 0.3 kt RCW
RWY 13: 4.4 kt HW 4.1 kt RCW
RWY 26: 0.3 kt HW 6 kt LCW
Visibility9999 m
Phenomena:N/A
Clouds:N/A
Expected CloudBase > 2,400 ft AGL from Temp-Dew spread
CeilingNone
Temp28°C (ISA +14)
Dew Point22°C (70% RH)
Heat Index30.7°C
QNH1016 hPa
Density Alt2,477 ft
Elevation597 ft
Report Wrong Elevation
Raw Report
KHYI 230256Z AUTO 18006KT 10SM CLR 28/22 A3000 RMK AO2 SLP148
T02780217 53016=

Extra information for KHYI:More info

Metar Taf Metar & Taf Last 4 Metars F.Rules Stats Wind Profile Meteogram Temp Stats Airport Information Weather charts Add Link Nearby VenuesMetar ALERT Operation Metar Decoded Social comments

AIRNAV info for KHYI